sensor_id;sensor_type;location;lat;lon;timestamp;temperature;humidity
16829;DHT22;8531;48.078;11.968;2023-08-20T00:01:26;23.30;99.90
16829;DHT22;8531;48.078;11.968;2023-08-20T00:03:55;23.20;99.90
16829;DHT22;8531;48.078;11.968;2023-08-20T00:06:22;23.20;99.90
16829;DHT22;8531;48.078;11.968;2023-08-20T00:08:48;23.20;99.90
16829;DHT22;8531;48.078;11.968;2023-08-20T00:11:14;23.20;99.90
16829;DHT22;8531;48.078;11.968;2023-08-20T00:13:40;23.20;99.90
16829;DHT22;8531;48.078;11.968;2023-08-20T00:16:06;23.30;99.90
16829;DHT22;8531;48.078;11.968;2023-08-20T00:18:32;23.30;99.90
16829;DHT22;8531;48.078;11.968;2023-08-20T00:20:58;23.30;99.90
16829;DHT22;8531;48.078;11.968;2023-08-20T00:23:25;23.40;99.90
16829;DHT22;8531;48.078;11.968;2023-08-20T00:25:51;23.30;99.90
16829;DHT22;8531;48.078;11.968;2023-08-20T00:28:18;23.30;99.90
16829;DHT22;8531;48.078;11.968;2023-08-20T00:30:44;23.30;99.90
16829;DHT22;8531;48.078;11.968;2023-08-20T00:33:10;23.20;99.90
16829;DHT22;8531;48.078;11.968;2023-08-20T00:35:36;23.00;99.90
16829;DHT22;8531;48.078;11.968;2023-08-20T00:38:01;22.90;99.90
16829;DHT22;8531;48.078;11.968;2023-08-20T00:40:28;22.80;99.90
16829;DHT22;8531;48.078;11.968;2023-08-20T00:42:53;22.70;99.90
16829;DHT22;8531;48.078;11.968;2023-08-20T00:45:19;22.70;99.90
16829;DHT22;8531;48.078;11.968;2023-08-20T00:47:45;22.60;99.90
16829;DHT22;8531;48.078;11.968;2023-08-20T00:50:11;22.60;99.90
16829;DHT22;8531;48.078;11.968;2023-08-20T00:52:38;22.60;99.90
16829;DHT22;8531;48.078;11.968;2023-08-20T00:55:10;22.70;99.90
16829;DHT22;8531;48.078;11.968;2023-08-20T00:57:40;22.70;99.90
16829;DHT22;8531;48.078;11.968;2023-08-20T01:00:07;22.60;99.90
16829;DHT22;8531;48.078;11.968;2023-08-20T01:02:37;22.70;99.90
16829;DHT22;8531;48.078;11.968;2023-08-20T01:05:04;22.80;99.90
16829;DHT22;8531;48.078;11.968;2023-08-20T01:13:10;22.90;99.90
16829;DHT22;8531;48.078;11.968;2023-08-20T01:15:36;22.80;99.90
16829;DHT22;8531;48.078;11.968;2023-08-20T01:18:02;22.80;99.90
16829;DHT22;8531;48.078;11.968;2023-08-20T01:20:33;22.80;99.90
16829;DHT22;8531;48.078;11.968;2023-08-20T01:28:37;22.70;99.90
16829;DHT22;8531;48.078;11.968;2023-08-20T01:31:05;22.70;99.90
16829;DHT22;8531;48.078;11.968;2023-08-20T01:33:31;22.70;99.90
16829;DHT22;8531;48.078;11.968;2023-08-20T01:35:57;22.70;99.90
16829;DHT22;8531;48.078;11.968;2023-08-20T01:38:23;22.60;99.90
16829;DHT22;8531;48.078;11.968;2023-08-20T01:40:48;22.50;99.90
16829;DHT22;8531;48.078;11.968;2023-08-20T01:43:14;22.40;99.90
16829;DHT22;8531;48.078;11.968;2023-08-20T01:45:41;22.20;99.90
16829;DHT22;8531;48.078;11.968;2023-08-20T01:48:06;22.00;99.90
16829;DHT22;8531;48.078;11.968;2023-08-20T01:50:34;22.10;99.90
16829;DHT22;8531;48.078;11.968;2023-08-20T01:53:01;22.00;99.90
16829;DHT22;8531;48.078;11.968;2023-08-20T01:55:28;22.10;99.90
16829;DHT22;8531;48.078;11.968;2023-08-20T01:57:53;22.20;99.90
16829;DHT22;8531;48.078;11.968;2023-08-20T02:00:19;22.20;99.90
16829;DHT22;8531;48.078;11.968;2023-08-20T02:02:44;22.20;99.90
16829;DHT22;8531;48.078;11.968;2023-08-20T02:05:10;22.10;99.90
16829;DHT22;8531;48.078;11.968;2023-08-20T02:07:36;22.00;99.90
16829;DHT22;8531;48.078;11.968;2023-08-20T02:10:02;22.20;99.90
16829;DHT22;8531;48.078;11.968;2023-08-20T02:12:28;22.20;99.90
16829;DHT22;8531;48.078;11.968;2023-08-20T02:14:54;22.30;99.90
16829;DHT22;8531;48.078;11.968;2023-08-20T02:17:19;22.20;99.90
16829;DHT22;8531;48.078;11.968;2023-08-20T02:19:45;22.30;99.90
16829;DHT22;8531;48.078;11.968;2023-08-20T02:22:11;22.20;99.90
16829;DHT22;8531;48.078;11.968;2023-08-20T02:24:36;22.20;99.90
16829;DHT22;8531;48.078;11.968;2023-08-20T02:27:02;22.10;99.90
16829;DHT22;8531;48.078;11.968;2023-08-20T02:29:28;22.10;99.90
16829;DHT22;8531;48.078;11.968;2023-08-20T02:31:54;22.00;99.90
16829;DHT22;8531;48.078;11.968;2023-08-20T02:34:20;22.00;99.90
16829;DHT22;8531;48.078;11.968;2023-08-20T02:36:45;22.00;99.90
16829;DHT22;8531;48.078;11.968;2023-08-20T02:39:12;21.80;99.90
16829;DHT22;8531;48.078;11.968;2023-08-20T02:41:38;21.80;99.90
16829;DHT22;8531;48.078;11.968;2023-08-20T02:44:04;21.70;99.90
16829;DHT22;8531;48.078;11.968;2023-08-20T02:46:30;21.60;99.90
16829;DHT22;8531;48.078;11.968;2023-08-20T02:48:55;21.50;99.90
16829;DHT22;8531;48.078;11.968;2023-08-20T02:51:21;21.50;99.90
16829;DHT22;8531;48.078;11.968;2023-08-20T02:53:48;21.50;99.90
16829;DHT22;8531;48.078;11.968;2023-08-20T02:56:13;21.40;99.90
16829;DHT22;8531;48.078;11.968;2023-08-20T02:58:39;21.40;99.90
16829;DHT22;8531;48.078;11.968;2023-08-20T03:01:05;21.40;99.90
16829;DHT22;8531;48.078;11.968;2023-08-20T03:03:31;21.40;99.90
16829;DHT22;8531;48.078;11.968;2023-08-20T03:05:57;21.50;99.90
16829;DHT22;8531;48.078;11.968;2023-08-20T03:08:22;21.40;99.90
16829;DHT22;8531;48.078;11.968;2023-08-20T03:10:48;21.50;99.90
16829;DHT22;8531;48.078;11.968;2023-08-20T03:13:13;21.60;99.90
16829;DHT22;8531;48.078;11.968;2023-08-20T03:15:39;21.50;99.90
16829;DHT22;8531;48.078;11.968;2023-08-20T03:18:06;21.60;99.90
16829;DHT22;8531;48.078;11.968;2023-08-20T03:20:31;21.80;99.90
16829;DHT22;8531;48.078;11.968;2023-08-20T03:22:57;21.70;99.90
16829;DHT22;8531;48.078;11.968;2023-08-20T03:25:23;21.70;99.90
16829;DHT22;8531;48.078;11.968;2023-08-20T03:27:51;21.70;99.90
16829;DHT22;8531;48.078;11.968;2023-08-20T03:30:17;21.70;99.90
16829;DHT22;8531;48.078;11.968;2023-08-20T03:32:43;21.60;99.90
16829;DHT22;8531;48.078;11.968;2023-08-20T03:35:09;21.50;99.90
16829;DHT22;8531;48.078;11.968;2023-08-20T03:37:35;21.50;99.90
16829;DHT22;8531;48.078;11.968;2023-08-20T03:40:00;21.50;99.90
16829;DHT22;8531;48.078;11.968;2023-08-20T03:42:26;21.50;99.90
16829;DHT22;8531;48.078;11.968;2023-08-20T03:44:52;21.40;99.90
16829;DHT22;8531;48.078;11.968;2023-08-20T03:47:17;21.40;99.90
16829;DHT22;8531;48.078;11.968;2023-08-20T03:49:46;21.30;99.90
16829;DHT22;8531;48.078;11.968;2023-08-20T03:52:12;21.30;99.90
16829;DHT22;8531;48.078;11.968;2023-08-20T03:54:38;21.40;99.90
16829;DHT22;8531;48.078;11.968;2023-08-20T03:57:04;21.40;99.90
16829;DHT22;8531;48.078;11.968;2023-08-20T03:59:30;21.30;99.90
16829;DHT22;8531;48.078;11.968;2023-08-20T04:01:56;21.30;99.90
16829;DHT22;8531;48.078;11.968;2023-08-20T04:04:22;21.20;99.90
16829;DHT22;8531;48.078;11.968;2023-08-20T04:06:47;21.10;99.90
16829;DHT22;8531;48.078;11.968;2023-08-20T04:09:13;21.10;99.90
16829;DHT22;8531;48.078;11.968;2023-08-20T04:11:39;21.20;99.90
16829;DHT22;8531;48.078;11.968;2023-08-20T04:14:04;21.20;99.90
16829;DHT22;8531;48.078;11.968;2023-08-20T04:16:30;21.20;99.90
16829;DHT22;8531;48.078;11.968;2023-08-20T04:18:56;21.20;99.90
16829;DHT22;8531;48.078;11.968;2023-08-20T04:21:21;21.20;99.90
16829;DHT22;8531;48.078;11.968;2023-08-20T04:23:47;21.20;99.90
16829;DHT22;8531;48.078;11.968;2023-08-20T04:26:13;21.20;99.90
16829;DHT22;8531;48.078;11.968;2023-08-20T04:28:39;21.10;99.90
16829;DHT22;8531;48.078;11.968;2023-08-20T04:31:04;21.10;99.90
16829;DHT22;8531;48.078;11.968;2023-08-20T04:33:30;21.10;99.90
16829;DHT22;8531;48.078;11.968;2023-08-20T04:35:56;21.00;99.90
16829;DHT22;8531;48.078;11.968;2023-08-20T04:38:21;21.10;99.90
16829;DHT22;8531;48.078;11.968;2023-08-20T04:40:50;21.10;99.90
16829;DHT22;8531;48.078;11.968;2023-08-20T04:43:16;21.20;99.90
16829;DHT22;8531;48.078;11.968;2023-08-20T04:45:41;21.20;99.90
16829;DHT22;8531;48.078;11.968;2023-08-20T04:48:08;21.20;99.90
16829;DHT22;8531;48.078;11.968;2023-08-20T04:50:34;21.30;99.90
16829;DHT22;8531;48.078;11.968;2023-08-20T04:52:59;21.40;99.90
16829;DHT22;8531;48.078;11.968;2023-08-20T04:55:28;21.50;99.90
16829;DHT22;8531;48.078;11.968;2023-08-20T04:57:54;21.40;99.90
16829;DHT22;8531;48.078;11.968;2023-08-20T05:00:21;21.40;99.90
16829;DHT22;8531;48.078;11.968;2023-08-20T05:02:47;21.40;99.90
16829;DHT22;8531;48.078;11.968;2023-08-20T05:05:12;21.50;99.90
16829;DHT22;8531;48.078;11.968;2023-08-20T05:07:38;21.50;99.90
16829;DHT22;8531;48.078;11.968;2023-08-20T05:10:04;21.60;99.90
16829;DHT22;8531;48.078;11.968;2023-08-20T05:12:30;21.60;99.90
16829;DHT22;8531;48.078;11.968;2023-08-20T05:14:56;21.60;99.90
16829;DHT22;8531;48.078;11.968;2023-08-20T05:17:22;21.70;99.90
16829;DHT22;8531;48.078;11.968;2023-08-20T05:19:47;21.80;99.90
16829;DHT22;8531;48.078;11.968;2023-08-20T05:22:13;21.90;99.90
16829;DHT22;8531;48.078;11.968;2023-08-20T05:24:39;22.00;99.90
16829;DHT22;8531;48.078;11.968;2023-08-20T05:27:09;22.00;99.90
16829;DHT22;8531;48.078;11.968;2023-08-20T05:29:37;22.00;99.90
16829;DHT22;8531;48.078;11.968;2023-08-20T05:32:03;21.90;99.90
16829;DHT22;8531;48.078;11.968;2023-08-20T05:34:28;21.90;99.90
16829;DHT22;8531;48.078;11.968;2023-08-20T05:36:54;21.90;99.90
16829;DHT22;8531;48.078;11.968;2023-08-20T05:39:20;21.80;99.90
16829;DHT22;8531;48.078;11.968;2023-08-20T05:41:45;21.70;99.90
16829;DHT22;8531;48.078;11.968;2023-08-20T05:44:11;21.50;99.90
16829;DHT22;8531;48.078;11.968;2023-08-20T05:46:37;21.50;99.90
16829;DHT22;8531;48.078;11.968;2023-08-20T05:49:03;21.50;99.90
16829;DHT22;8531;48.078;11.968;2023-08-20T05:51:28;21.50;99.90
16829;DHT22;8531;48.078;11.968;2023-08-20T05:53:54;21.40;99.90
16829;DHT22;8531;48.078;11.968;2023-08-20T05:56:20;21.50;99.90
16829;DHT22;8531;48.078;11.968;2023-08-20T05:58:46;21.60;99.90
16829;DHT22;8531;48.078;11.968;2023-08-20T06:01:11;21.60;99.90
16829;DHT22;8531;48.078;11.968;2023-08-20T06:03:37;21.40;99.90
16829;DHT22;8531;48.078;11.968;2023-08-20T06:06:02;21.30;99.90
16829;DHT22;8531;48.078;11.968;2023-08-20T06:08:28;21.20;99.90
16829;DHT22;8531;48.078;11.968;2023-08-20T06:10:54;21.20;99.90
16829;DHT22;8531;48.078;11.968;2023-08-20T06:13:20;21.10;99.90
16829;DHT22;8531;48.078;11.968;2023-08-20T06:15:45;21.10;99.90
16829;DHT22;8531;48.078;11.968;2023-08-20T06:18:11;21.10;99.90
16829;DHT22;8531;48.078;11.968;2023-08-20T06:20:37;21.20;99.90
16829;DHT22;8531;48.078;11.968;2023-08-20T06:23:02;21.20;99.90
16829;DHT22;8531;48.078;11.968;2023-08-20T06:25:28;21.40;99.90
16829;DHT22;8531;48.078;11.968;2023-08-20T06:27:54;21.50;99.90
16829;DHT22;8531;48.078;11.968;2023-08-20T06:30:20;21.60;99.90
16829;DHT22;8531;48.078;11.968;2023-08-20T06:32:45;21.60;99.90
16829;DHT22;8531;48.078;11.968;2023-08-20T06:35:11;21.70;99.90
16829;DHT22;8531;48.078;11.968;2023-08-20T06:37:38;21.80;99.90
16829;DHT22;8531;48.078;11.968;2023-08-20T06:40:06;21.90;99.90
16829;DHT22;8531;48.078;11.968;2023-08-20T06:42:32;22.00;99.90
16829;DHT22;8531;48.078;11.968;2023-08-20T06:44:57;22.00;99.90
16829;DHT22;8531;48.078;11.968;2023-08-20T06:47:23;22.10;99.90
16829;DHT22;8531;48.078;11.968;2023-08-20T06:49:50;22.20;99.90
16829;DHT22;8531;48.078;11.968;2023-08-20T06:52:15;22.30;99.90
16829;DHT22;8531;48.078;11.968;2023-08-20T06:54:41;22.40;99.90
16829;DHT22;8531;48.078;11.968;2023-08-20T06:57:07;22.50;99.90
16829;DHT22;8531;48.078;11.968;2023-08-20T06:59:32;22.60;99.90
16829;DHT22;8531;48.078;11.968;2023-08-20T07:01:58;22.90;99.90
16829;DHT22;8531;48.078;11.968;2023-08-20T07:04:24;22.90;99.90
16829;DHT22;8531;48.078;11.968;2023-08-20T07:06:51;23.00;99.90
16829;DHT22;8531;48.078;11.968;2023-08-20T07:09:16;23.20;99.90
16829;DHT22;8531;48.078;11.968;2023-08-20T07:11:42;23.40;99.90
16829;DHT22;8531;48.078;11.968;2023-08-20T07:14:08;23.50;99.90
16829;DHT22;8531;48.078;11.968;2023-08-20T07:16:33;23.70;99.90
16829;DHT22;8531;48.078;11.968;2023-08-20T07:18:59;23.70;99.90
16829;DHT22;8531;48.078;11.968;2023-08-20T07:21:25;23.50;99.90
16829;DHT22;8531;48.078;11.968;2023-08-20T07:23:50;23.70;99.90
16829;DHT22;8531;48.078;11.968;2023-08-20T07:26:16;23.80;99.90
16829;DHT22;8531;48.078;11.968;2023-08-20T07:28:42;24.30;99.90
16829;DHT22;8531;48.078;11.968;2023-08-20T07:31:23;24.50;99.90
16829;DHT22;8531;48.078;11.968;2023-08-20T07:33:50;24.20;99.90
16829;DHT22;8531;48.078;11.968;2023-08-20T07:36:17;24.70;99.90
16829;DHT22;8531;48.078;11.968;2023-08-20T07:38:43;25.20;99.90
16829;DHT22;8531;48.078;11.968;2023-08-20T07:41:10;25.40;99.90
16829;DHT22;8531;48.078;11.968;2023-08-20T07:43:39;25.60;99.90
16829;DHT22;8531;48.078;11.968;2023-08-20T07:46:05;25.50;99.90
16829;DHT22;8531;48.078;11.968;2023-08-20T07:48:31;25.70;99.90
16829;DHT22;8531;48.078;11.968;2023-08-20T07:50:57;26.00;99.90
16829;DHT22;8531;48.078;11.968;2023-08-20T07:53:23;26.40;99.90
16829;DHT22;8531;48.078;11.968;2023-08-20T07:55:49;26.70;99.90
16829;DHT22;8531;48.078;11.968;2023-08-20T07:58:15;26.30;99.90
16829;DHT22;8531;48.078;11.968;2023-08-20T08:00:40;26.70;99.90
16829;DHT22;8531;48.078;11.968;2023-08-20T08:03:06;26.70;99.90
16829;DHT22;8531;48.078;11.968;2023-08-20T08:05:32;26.90;99.90
16829;DHT22;8531;48.078;11.968;2023-08-20T08:07:57;27.20;99.90
16829;DHT22;8531;48.078;11.968;2023-08-20T08:10:23;26.90;99.90
16829;DHT22;8531;48.078;11.968;2023-08-20T08:12:49;27.00;99.90
16829;DHT22;8531;48.078;11.968;2023-08-20T08:15:15;27.50;99.90
16829;DHT22;8531;48.078;11.968;2023-08-20T08:17:41;27.70;99.90
16829;DHT22;8531;48.078;11.968;2023-08-20T08:20:07;27.40;99.90
16829;DHT22;8531;48.078;11.968;2023-08-20T08:22:33;27.90;99.90
16829;DHT22;8531;48.078;11.968;2023-08-20T08:24:58;28.10;99.90
16829;DHT22;8531;48.078;11.968;2023-08-20T08:27:24;27.70;99.90
16829;DHT22;8531;48.078;11.968;2023-08-20T08:29:50;27.70;99.90
16829;DHT22;8531;48.078;11.968;2023-08-20T08:32:16;28.50;99.90
16829;DHT22;8531;48.078;11.968;2023-08-20T08:34:42;28.10;99.90
16829;DHT22;8531;48.078;11.968;2023-08-20T08:37:07;28.00;99.90
16829;DHT22;8531;48.078;11.968;2023-08-20T08:39:33;28.30;99.90
16829;DHT22;8531;48.078;11.968;2023-08-20T08:42:03;28.70;99.90
16829;DHT22;8531;48.078;11.968;2023-08-20T08:44:31;28.60;99.90
16829;DHT22;8531;48.078;11.968;2023-08-20T08:47:01;29.20;99.90
16829;DHT22;8531;48.078;11.968;2023-08-20T08:49:27;29.40;99.90
16829;DHT22;8531;48.078;11.968;2023-08-20T08:51:56;29.60;99.90
16829;DHT22;8531;48.078;11.968;2023-08-20T08:54:23;29.70;99.90
16829;DHT22;8531;48.078;11.968;2023-08-20T08:56:50;30.00;99.90
16829;DHT22;8531;48.078;11.968;2023-08-20T08:59:16;30.30;99.90
16829;DHT22;8531;48.078;11.968;2023-08-20T09:01:41;30.00;99.90
16829;DHT22;8531;48.078;11.968;2023-08-20T09:04:07;30.20;99.90
16829;DHT22;8531;48.078;11.968;2023-08-20T09:06:46;30.10;99.90
16829;DHT22;8531;48.078;11.968;2023-08-20T09:09:12;30.20;99.90
16829;DHT22;8531;48.078;11.968;2023-08-20T09:11:38;30.60;99.90
16829;DHT22;8531;48.078;11.968;2023-08-20T09:14:04;30.50;99.90
16829;DHT22;8531;48.078;11.968;2023-08-20T09:16:31;30.80;99.90
16829;DHT22;8531;48.078;11.968;2023-08-20T09:19:00;31.10;99.90
16829;DHT22;8531;48.078;11.968;2023-08-20T09:21:29;31.20;99.90
16829;DHT22;8531;48.078;11.968;2023-08-20T09:23:58;31.40;99.90
16829;DHT22;8531;48.078;11.968;2023-08-20T09:26:26;31.70;99.90
16829;DHT22;8531;48.078;11.968;2023-08-20T09:28:54;31.70;99.90
16829;DHT22;8531;48.078;11.968;2023-08-20T09:31:20;31.60;99.90
16829;DHT22;8531;48.078;11.968;2023-08-20T09:34:02;31.70;99.90
16829;DHT22;8531;48.078;11.968;2023-08-20T09:36:34;31.90;99.90
16829;DHT22;8531;48.078;11.968;2023-08-20T09:39:03;31.70;99.90
16829;DHT22;8531;48.078;11.968;2023-08-20T09:41:29;31.90;99.90
16829;DHT22;8531;48.078;11.968;2023-08-20T09:43:59;31.70;99.90
16829;DHT22;8531;48.078;11.968;2023-08-20T09:46:27;31.70;99.90
16829;DHT22;8531;48.078;11.968;2023-08-20T09:48:57;31.60;99.90
16829;DHT22;8531;48.078;11.968;2023-08-20T09:51:27;31.80;99.90
16829;DHT22;8531;48.078;11.968;2023-08-20T09:54:13;31.90;99.90
16829;DHT22;8531;48.078;11.968;2023-08-20T09:56:40;32.30;99.90
16829;DHT22;8531;48.078;11.968;2023-08-20T09:59:07;32.40;99.90
16829;DHT22;8531;48.078;11.968;2023-08-20T10:01:35;32.60;99.90
16829;DHT22;8531;48.078;11.968;2023-08-20T10:04:01;32.80;99.90
16829;DHT22;8531;48.078;11.968;2023-08-20T10:06:28;32.60;99.90
16829;DHT22;8531;48.078;11.968;2023-08-20T10:08:55;32.40;99.90
16829;DHT22;8531;48.078;11.968;2023-08-20T10:11:20;32.40;99.90
16829;DHT22;8531;48.078;11.968;2023-08-20T10:13:46;32.60;99.90
16829;DHT22;8531;48.078;11.968;2023-08-20T10:16:12;32.80;99.90
16829;DHT22;8531;48.078;11.968;2023-08-20T10:18:39;32.70;99.90
16829;DHT22;8531;48.078;11.968;2023-08-20T10:21:05;32.80;99.90
16829;DHT22;8531;48.078;11.968;2023-08-20T10:23:33;33.00;99.90
16829;DHT22;8531;48.078;11.968;2023-08-20T10:26:09;33.40;99.90
16829;DHT22;8531;48.078;11.968;2023-08-20T10:28:35;33.60;99.90
16829;DHT22;8531;48.078;11.968;2023-08-20T10:31:16;33.30;99.90
16829;DHT22;8531;48.078;11.968;2023-08-20T10:33:49;33.90;99.90
16829;DHT22;8531;48.078;11.968;2023-08-20T10:36:21;33.60;99.90
16829;DHT22;8531;48.078;11.968;2023-08-20T10:38:56;33.70;99.90
16829;DHT22;8531;48.078;11.968;2023-08-20T10:41:27;33.90;99.90
16829;DHT22;8531;48.078;11.968;2023-08-20T10:43:54;34.00;99.90
16829;DHT22;8531;48.078;11.968;2023-08-20T10:46:24;34.10;99.90
16829;DHT22;8531;48.078;11.968;2023-08-20T10:51:32;34.30;99.90
16829;DHT22;8531;48.078;11.968;2023-08-20T10:56:48;33.90;99.90
16829;DHT22;8531;48.078;11.968;2023-08-20T10:59:17;33.80;99.90
16829;DHT22;8531;48.078;11.968;2023-08-20T11:02:07;33.90;99.90
16829;DHT22;8531;48.078;11.968;2023-08-20T11:04:36;33.90;99.90
16829;DHT22;8531;48.078;11.968;2023-08-20T11:07:04;33.90;99.90
16829;DHT22;8531;48.078;11.968;2023-08-20T11:09:30;34.30;99.90
16829;DHT22;8531;48.078;11.968;2023-08-20T11:11:57;34.50;99.90
16829;DHT22;8531;48.078;11.968;2023-08-20T11:14:23;34.60;99.90
16829;DHT22;8531;48.078;11.968;2023-08-20T11:16:50;34.50;99.90
16829;DHT22;8531;48.078;11.968;2023-08-20T11:19:20;35.00;99.90
16829;DHT22;8531;48.078;11.968;2023-08-20T11:21:47;35.40;99.90
16829;DHT22;8531;48.078;11.968;2023-08-20T11:24:13;34.70;99.90
16829;DHT22;8531;48.078;11.968;2023-08-20T11:26:40;35.00;99.90
16829;DHT22;8531;48.078;11.968;2023-08-20T11:29:10;34.70;99.90
16829;DHT22;8531;48.078;11.968;2023-08-20T11:31:38;34.90;99.90
16829;DHT22;8531;48.078;11.968;2023-08-20T11:34:04;35.30;99.90
16829;DHT22;8531;48.078;11.968;2023-08-20T11:36:31;35.60;99.90
16829;DHT22;8531;48.078;11.968;2023-08-20T11:38:57;35.60;99.90
16829;DHT22;8531;48.078;11.968;2023-08-20T11:41:23;35.30;99.90
16829;DHT22;8531;48.078;11.968;2023-08-20T11:43:50;35.10;99.90
16829;DHT22;8531;48.078;11.968;2023-08-20T11:46:19;35.30;99.90
16829;DHT22;8531;48.078;11.968;2023-08-20T11:49:12;35.20;99.90
16829;DHT22;8531;48.078;11.968;2023-08-20T11:51:43;34.60;99.90
16829;DHT22;8531;48.078;11.968;2023-08-20T11:54:15;34.90;99.90
16829;DHT22;8531;48.078;11.968;2023-08-20T11:56:48;35.30;99.90
16829;DHT22;8531;48.078;11.968;2023-08-20T11:59:15;35.40;99.90
16829;DHT22;8531;48.078;11.968;2023-08-20T12:01:41;35.50;99.90
16829;DHT22;8531;48.078;11.968;2023-08-20T12:04:08;36.00;99.90
16829;DHT22;8531;48.078;11.968;2023-08-20T12:06:35;35.70;99.90
16829;DHT22;8531;48.078;11.968;2023-08-20T12:09:02;35.90;99.90
16829;DHT22;8531;48.078;11.968;2023-08-20T12:11:30;35.70;99.90
16829;DHT22;8531;48.078;11.968;2023-08-20T12:13:56;35.80;99.90
16829;DHT22;8531;48.078;11.968;2023-08-20T12:16:23;36.10;99.90
16829;DHT22;8531;48.078;11.968;2023-08-20T12:18:52;36.10;99.90
16829;DHT22;8531;48.078;11.968;2023-08-20T12:21:21;35.90;99.90
16829;DHT22;8531;48.078;11.968;2023-08-20T12:23:46;36.20;99.90
16829;DHT22;8531;48.078;11.968;2023-08-20T12:26:12;35.60;99.90
16829;DHT22;8531;48.078;11.968;2023-08-20T12:28:37;35.80;99.90
16829;DHT22;8531;48.078;11.968;2023-08-20T12:31:03;35.80;99.90
16829;DHT22;8531;48.078;11.968;2023-08-20T12:33:29;36.00;99.90
16829;DHT22;8531;48.078;11.968;2023-08-20T12:35:55;36.10;99.90
16829;DHT22;8531;48.078;11.968;2023-08-20T12:38:22;36.10;99.90
16829;DHT22;8531;48.078;11.968;2023-08-20T12:40:48;35.70;99.90
16829;DHT22;8531;48.078;11.968;2023-08-20T12:43:14;35.80;99.90
16829;DHT22;8531;48.078;11.968;2023-08-20T12:45:40;35.90;99.90
16829;DHT22;8531;48.078;11.968;2023-08-20T12:48:06;35.60;99.90
16829;DHT22;8531;48.078;11.968;2023-08-20T12:50:33;36.00;99.90
16829;DHT22;8531;48.078;11.968;2023-08-20T12:52:59;35.90;99.90
16829;DHT22;8531;48.078;11.968;2023-08-20T12:55:24;36.20;99.90
16829;DHT22;8531;48.078;11.968;2023-08-20T12:57:57;36.00;99.90
16829;DHT22;8531;48.078;11.968;2023-08-20T13:00:24;36.40;99.90
16829;DHT22;8531;48.078;11.968;2023-08-20T13:02:51;36.70;99.90
16829;DHT22;8531;48.078;11.968;2023-08-20T13:05:17;36.20;99.60
16829;DHT22;8531;48.078;11.968;2023-08-20T13:07:43;35.90;99.90
16829;DHT22;8531;48.078;11.968;2023-08-20T13:10:09;36.00;99.90
16829;DHT22;8531;48.078;11.968;2023-08-20T13:12:35;35.70;99.60
16829;DHT22;8531;48.078;11.968;2023-08-20T13:15:02;35.80;99.90
16829;DHT22;8531;48.078;11.968;2023-08-20T13:17:29;35.80;99.70
16829;DHT22;8531;48.078;11.968;2023-08-20T13:19:55;35.80;99.90
16829;DHT22;8531;48.078;11.968;2023-08-20T13:22:21;35.90;99.90
16829;DHT22;8531;48.078;11.968;2023-08-20T13:24:47;35.80;99.90
16829;DHT22;8531;48.078;11.968;2023-08-20T13:27:13;35.80;99.90
16829;DHT22;8531;48.078;11.968;2023-08-20T13:29:40;36.00;99.90
16829;DHT22;8531;48.078;11.968;2023-08-20T13:32:06;36.00;99.40
16829;DHT22;8531;48.078;11.968;2023-08-20T13:34:32;36.10;99.30
16829;DHT22;8531;48.078;11.968;2023-08-20T13:36:57;36.10;99.80
16829;DHT22;8531;48.078;11.968;2023-08-20T13:39:24;36.00;99.50
16829;DHT22;8531;48.078;11.968;2023-08-20T13:41:51;36.20;99.40
16829;DHT22;8531;48.078;11.968;2023-08-20T13:44:17;36.40;99.70
16829;DHT22;8531;48.078;11.968;2023-08-20T13:46:42;36.50;99.20
16829;DHT22;8531;48.078;11.968;2023-08-20T13:49:08;36.10;99.60
16829;DHT22;8531;48.078;11.968;2023-08-20T13:51:34;36.00;99.60
16829;DHT22;8531;48.078;11.968;2023-08-20T13:54:00;36.10;99.50
16829;DHT22;8531;48.078;11.968;2023-08-20T13:56:26;36.10;99.60
16829;DHT22;8531;48.078;11.968;2023-08-20T13:58:52;35.70;99.60
16829;DHT22;8531;48.078;11.968;2023-08-20T14:01:18;35.70;99.60
16829;DHT22;8531;48.078;11.968;2023-08-20T14:03:44;36.10;99.60
16829;DHT22;8531;48.078;11.968;2023-08-20T14:06:09;36.00;99.40
16829;DHT22;8531;48.078;11.968;2023-08-20T14:08:35;36.10;99.40
16829;DHT22;8531;48.078;11.968;2023-08-20T14:11:00;36.40;99.50
16829;DHT22;8531;48.078;11.968;2023-08-20T14:13:26;36.70;99.50
16829;DHT22;8531;48.078;11.968;2023-08-20T14:15:52;36.10;98.90
16829;DHT22;8531;48.078;11.968;2023-08-20T14:18:17;36.30;99.00
16829;DHT22;8531;48.078;11.968;2023-08-20T14:20:43;36.20;99.00
16829;DHT22;8531;48.078;11.968;2023-08-20T14:23:09;36.30;98.90
16829;DHT22;8531;48.078;11.968;2023-08-20T14:25:34;36.50;98.80
16829;DHT22;8531;48.078;11.968;2023-08-20T14:28:00;36.10;98.50
16829;DHT22;8531;48.078;11.968;2023-08-20T14:30:26;36.20;98.10
16829;DHT22;8531;48.078;11.968;2023-08-20T14:32:52;36.20;98.50
16829;DHT22;8531;48.078;11.968;2023-08-20T14:35:19;36.60;98.30
16829;DHT22;8531;48.078;11.968;2023-08-20T14:37:45;36.60;98.20
16829;DHT22;8531;48.078;11.968;2023-08-20T14:40:11;36.50;98.20
16829;DHT22;8531;48.078;11.968;2023-08-20T14:42:37;36.30;98.10
16829;DHT22;8531;48.078;11.968;2023-08-20T14:45:03;36.00;98.10
16829;DHT22;8531;48.078;11.968;2023-08-20T14:47:30;35.70;97.30
16829;DHT22;8531;48.078;11.968;2023-08-20T14:49:56;35.50;96.90
16829;DHT22;8531;48.078;11.968;2023-08-20T14:52:22;35.60;97.50
16829;DHT22;8531;48.078;11.968;2023-08-20T14:54:48;36.00;97.40
16829;DHT22;8531;48.078;11.968;2023-08-20T14:57:14;36.10;97.40
16829;DHT22;8531;48.078;11.968;2023-08-20T14:59:42;36.20;96.70
16829;DHT22;8531;48.078;11.968;2023-08-20T15:02:08;36.40;96.50
16829;DHT22;8531;48.078;11.968;2023-08-20T15:04:34;36.30;95.60
16829;DHT22;8531;48.078;11.968;2023-08-20T15:07:00;36.50;95.70
16829;DHT22;8531;48.078;11.968;2023-08-20T15:09:25;36.30;95.70
16829;DHT22;8531;48.078;11.968;2023-08-20T15:11:51;36.20;95.80
16829;DHT22;8531;48.078;11.968;2023-08-20T15:14:17;35.90;95.70
16829;DHT22;8531;48.078;11.968;2023-08-20T15:16:43;35.70;95.90
16829;DHT22;8531;48.078;11.968;2023-08-20T15:19:08;35.90;96.00
16829;DHT22;8531;48.078;11.968;2023-08-20T15:21:34;35.90;95.90
16829;DHT22;8531;48.078;11.968;2023-08-20T15:24:00;35.30;96.20
16829;DHT22;8531;48.078;11.968;2023-08-20T15:26:26;35.20;96.50
16829;DHT22;8531;48.078;11.968;2023-08-20T15:28:54;35.40;96.60
16829;DHT22;8531;48.078;11.968;2023-08-20T15:31:19;35.50;96.30
16829;DHT22;8531;48.078;11.968;2023-08-20T15:33:45;35.50;95.90
16829;DHT22;8531;48.078;11.968;2023-08-20T15:36:11;35.30;96.60
16829;DHT22;8531;48.078;11.968;2023-08-20T15:38:36;35.20;96.70
16829;DHT22;8531;48.078;11.968;2023-08-20T15:41:02;34.90;96.10
16829;DHT22;8531;48.078;11.968;2023-08-20T15:43:28;34.80;96.50